createdAt,value
2022-10-11T00:00:03.073Z,95790.05
2022-10-11T00:01:03.117Z,95789.88
2022-10-11T00:02:03.065Z,95790.95
2022-10-11T00:03:03.054Z,95787.95
2022-10-11T00:04:03.031Z,95792.61
2022-10-11T00:05:03.041Z,95794.48
2022-10-11T00:06:03.566Z,95792.27
2022-10-11T00:07:03.031Z,95793.63
2022-10-11T00:08:03.006Z,95795.05
2022-10-11T00:09:02.992Z,95793.03
2022-10-11T00:10:02.982Z,95795.53
2022-10-11T00:11:02.975Z,95794.62
2022-10-11T00:12:02.977Z,95795.36
2022-10-11T00:13:02.996Z,95799.51
2022-10-11T00:14:02.957Z,95795.25
2022-10-11T00:15:02.944Z,95796.10
2022-10-11T00:16:03.239Z,95794.91
2022-10-11T00:17:02.939Z,95795.31
2022-10-11T00:18:05.430Z,95797.36
2022-10-11T00:19:02.916Z,95796.17
2022-10-11T00:20:02.909Z,95793.22
2022-10-11T00:21:02.895Z,95792.14
2022-10-11T00:22:02.889Z,95795.72
2022-10-11T00:23:02.890Z,95793.62
2022-10-11T00:24:02.870Z,95790.33
2022-10-11T00:25:02.892Z,95791.89
2022-10-11T00:26:03.281Z,95789.39
2022-10-11T00:27:02.852Z,95794.73
2022-10-11T00:28:02.829Z,95793.94
2022-10-11T00:29:02.832Z,95789.73
2022-10-11T00:30:02.809Z,95790.08
2022-10-11T00:31:03.236Z,95790.54
2022-10-11T00:32:02.796Z,95787.98
2022-10-11T00:33:02.789Z,95795.53
2022-10-11T00:34:02.770Z,95797.78
2022-10-11T00:35:02.784Z,95792.89
2022-10-11T00:36:03.131Z,95792.98
2022-10-11T00:37:02.786Z,95793.86
2022-10-11T00:38:02.755Z,95794.59
2022-10-11T00:39:02.745Z,95797.78
2022-10-11T00:40:02.724Z,95795.79
2022-10-11T00:41:02.735Z,95791.96
2022-10-11T00:42:02.717Z,95796.30
2022-10-11T00:43:02.736Z,95796.02
2022-10-11T00:44:02.684Z,95802.39
2022-10-11T00:45:02.697Z,95804.54
2022-10-11T00:46:03.127Z,95805.62
2022-10-11T00:47:02.685Z,95808.23
2022-10-11T00:48:02.655Z,95807.64
2022-10-11T00:49:02.679Z,95808.09
2022-10-11T00:50:02.637Z,95805.38
2022-10-11T00:51:03.008Z,95801.69
2022-10-11T00:52:02.624Z,95804.58
2022-10-11T00:53:02.616Z,95810.66
2022-10-11T00:54:02.618Z,95809.59
2022-10-11T00:55:02.653Z,95808.45
2022-10-11T00:56:02.881Z,95807.88
2022-10-11T00:57:02.589Z,95808.22
2022-10-11T00:58:02.590Z,95807.94
2022-10-11T00:59:02.559Z,95803.14
2022-10-11T01:00:02.561Z,95802.46
2022-10-11T01:01:02.599Z,95803.77
2022-10-11T01:02:02.553Z,95804.22
2022-10-11T01:03:02.546Z,95800.76
2022-10-11T01:04:02.536Z,95801.44
2022-10-11T01:05:27.615Z,95803.89
2022-10-11T01:06:02.812Z,95805.48
2022-10-11T01:07:02.530Z,95808.20
2022-10-11T01:08:02.497Z,95802.75
2022-10-11T01:09:02.474Z,95804.52
2022-10-11T01:10:02.492Z,95806.56
2022-10-11T01:11:02.476Z,95809.28
2022-10-11T01:12:02.466Z,95806.64
2022-10-11T01:13:02.463Z,95807.41
2022-10-11T01:14:02.455Z,95809.09
2022-10-11T01:15:02.423Z,95809.44
2022-10-11T01:16:02.904Z,95811.08
2022-10-11T01:17:02.418Z,95814.55
2022-10-11T01:18:02.404Z,95810.92
2022-10-11T01:19:02.406Z,95813.75
2022-10-11T01:20:02.385Z,95820.48
2022-10-11T01:21:02.376Z,95816.05
2022-10-11T01:22:02.380Z,95815.49
2022-10-11T01:23:02.356Z,95813.27
2022-10-11T01:24:07.508Z,95810.78
2022-10-11T01:25:02.371Z,95815.20
2022-10-11T01:26:02.765Z,95809.19
2022-10-11T01:27:02.318Z,95818.22
2022-10-11T01:28:02.333Z,95817.77
2022-10-11T01:29:02.298Z,95821.23
2022-10-11T01:30:02.313Z,95822.31
2022-10-11T01:31:02.300Z,95818.34
2022-10-11T01:32:02.293Z,95814.70
2022-10-11T01:33:02.283Z,95816.38
2022-10-11T01:34:02.280Z,95812.35
2022-10-11T01:35:02.266Z,95812.41
2022-10-11T01:36:02.665Z,95815.08
2022-10-11T01:37:02.264Z,95814.74
2022-10-11T01:38:02.243Z,95816.50
2022-10-11T01:39:02.211Z,95810.82
2022-10-11T01:40:02.212Z,95815.99
2022-10-11T01:41:02.209Z,95813.16
2022-10-11T01:42:02.202Z,95813.66
2022-10-11T01:43:02.207Z,95809.09
2022-10-11T01:44:02.187Z,95807.22
2022-10-11T01:45:02.156Z,95807.05
2022-10-11T01:46:02.582Z,95803.13
2022-10-11T01:47:02.141Z,95801.91
2022-10-11T01:48:02.154Z,95802.88
2022-10-11T01:49:02.148Z,95803.30
2022-10-11T01:50:02.116Z,95797.11
2022-10-11T01:51:02.120Z,95797.41
2022-10-11T01:52:02.106Z,95800.07
2022-10-11T01:53:02.104Z,95796.50
2022-10-11T01:54:02.101Z,95788.60
2022-10-11T01:55:09.553Z,95793.20
2022-10-11T01:56:02.466Z,95795.22
2022-10-11T01:57:02.047Z,95795.05
2022-10-11T01:58:02.050Z,95797.52
2022-10-11T01:59:02.044Z,95797.20
2022-10-11T02:00:02.028Z,95793.75
2022-10-11T02:01:02.209Z,95796.13
2022-10-11T02:02:02.022Z,95796.13
2022-10-11T02:03:02.000Z,95799.31
2022-10-11T02:04:02.003Z,95797.27
2022-10-11T02:05:01.981Z,95790.12
2022-10-11T02:06:02.462Z,95795.91
2022-10-11T02:07:01.995Z,95791.19
2022-10-11T02:08:01.953Z,95790.80
2022-10-11T02:09:05.700Z,95788.70
2022-10-11T02:10:01.934Z,95791.42
2022-10-11T02:11:01.922Z,95792.39
2022-10-11T02:12:01.944Z,95784.27
2022-10-11T02:13:01.938Z,95788.70
2022-10-11T02:14:01.903Z,95787.45
2022-10-11T02:15:01.884Z,95790.17
2022-10-11T02:16:02.345Z,95788.59
2022-10-11T02:17:01.887Z,95784.84
2022-10-11T02:18:01.879Z,95788.81
2022-10-11T02:19:01.875Z,95786.80
2022-10-11T02:20:01.858Z,95779.95
2022-10-11T02:21:01.835Z,95774.70
2022-10-11T02:22:01.838Z,95778.53
2022-10-11T02:23:01.830Z,95775.47
2022-10-11T02:24:01.827Z,95769.73
2022-10-11T02:25:01.838Z,95771.46
2022-10-11T02:26:02.076Z,95771.69
2022-10-11T02:27:01.778Z,95775.72
2022-10-11T02:28:01.777Z,95773.56
2022-10-11T02:29:01.758Z,95773.73
2022-10-11T02:30:01.759Z,95772.88
2022-10-11T02:31:01.772Z,95774.81
2022-10-11T02:32:01.740Z,95772.77
2022-10-11T02:33:01.743Z,95770.33
2022-10-11T02:34:01.742Z,95772.94
2022-10-11T02:35:01.712Z,95770.73
2022-10-11T02:36:01.958Z,95772.77
2022-10-11T02:37:01.719Z,95770.84
2022-10-11T02:38:01.692Z,95772.60
2022-10-11T02:39:01.672Z,95773.00
2022-10-11T02:40:01.698Z,95773.73
2022-10-11T02:41:01.660Z,95768.06
2022-10-11T02:42:01.665Z,95774.70
2022-10-11T02:43:01.666Z,95770.50
2022-10-11T02:44:01.640Z,95771.50
2022-10-11T02:45:01.623Z,95774.67
2022-10-11T02:46:01.947Z,95777.74
2022-10-11T02:47:01.629Z,95771.61
2022-10-11T02:48:01.603Z,95776.49
2022-10-11T02:49:01.619Z,95772.18
2022-10-11T02:50:01.585Z,95769.80
2022-10-11T02:51:01.574Z,95768.43
2022-10-11T02:52:01.565Z,95762.98
2022-10-11T02:53:01.569Z,95762.24
2022-10-11T02:54:01.557Z,95763.89
2022-10-11T02:55:01.572Z,95761.90
2022-10-11T02:56:01.820Z,95762.87
2022-10-11T02:57:01.533Z,95759.34
2022-10-11T02:58:01.521Z,95760.25
2022-10-11T02:59:01.509Z,95756.73
2022-10-11T03:00:01.513Z,95759.28
2022-10-11T03:01:01.526Z,95758.61
2022-10-11T03:02:01.549Z,95751.80
2022-10-11T03:03:01.478Z,95760.20
2022-10-11T03:04:01.483Z,95754.75
2022-10-11T03:05:01.463Z,95757.25
2022-10-11T03:06:01.867Z,95757.84
2022-10-11T03:07:01.465Z,95758.86
2022-10-11T03:08:01.439Z,95756.64
2022-10-11T03:09:01.435Z,95761.36
2022-10-11T03:10:01.424Z,95763.17
2022-10-11T03:11:01.404Z,95765.11
2022-10-11T03:12:01.402Z,95767.73
2022-10-11T03:13:01.426Z,95769.48
2022-10-11T03:14:01.396Z,95768.98
2022-10-11T03:15:01.376Z,95765.51
2022-10-11T03:16:03.622Z,95762.87
2022-10-11T03:17:23.644Z,95759.20
2022-10-11T03:18:01.357Z,95764.83
2022-10-11T03:19:01.352Z,95764.60
2022-10-11T03:20:01.346Z,95764.15
2022-10-11T03:21:01.315Z,95767.67
2022-10-11T03:22:01.316Z,95764.09
2022-10-11T03:23:01.317Z,95769.83
2022-10-11T03:24:01.309Z,95765.91
2022-10-11T03:25:04.284Z,95769.52
2022-10-11T03:26:01.325Z,95772.70
2022-10-11T03:27:01.280Z,95775.94
2022-10-11T03:28:01.267Z,95774.52
2022-10-11T03:29:01.251Z,95772.53
2022-10-11T03:30:01.261Z,95773.20
2022-10-11T03:31:01.252Z,95768.66
2022-10-11T03:32:01.230Z,95775.26
2022-10-11T03:33:01.234Z,95774.17
2022-10-11T03:34:01.232Z,95774.06
2022-10-11T03:35:01.214Z,95769.34
2022-10-11T03:36:01.333Z,95771.62
2022-10-11T03:37:01.190Z,95768.66
2022-10-11T03:38:01.183Z,95774.29
2022-10-11T03:39:01.186Z,95770.77
2022-10-11T03:40:01.181Z,95772.36
2022-10-11T03:41:01.166Z,95772.98
2022-10-11T03:42:01.153Z,95774.17
2022-10-11T03:43:01.155Z,95777.30
2022-10-11T03:44:01.132Z,95772.70
2022-10-11T03:45:01.130Z,95775.37
2022-10-11T03:46:01.131Z,95779.12
2022-10-11T03:47:01.104Z,95780.31
2022-10-11T03:48:01.127Z,95783.49
2022-10-11T03:49:01.109Z,95783.66
2022-10-11T03:50:01.082Z,95787.98
2022-10-11T03:51:01.065Z,95785.70
2022-10-11T03:52:01.079Z,95786.50
2022-10-11T03:53:01.054Z,95785.70
2022-10-11T03:54:01.046Z,95783.55
2022-10-11T03:55:01.057Z,95783.89
2022-10-11T03:56:05.894Z,95782.30
2022-10-11T03:57:01.017Z,95787.19
2022-10-11T03:58:01.030Z,95785.59
2022-10-11T03:59:01.011Z,95789.23
2022-10-11T04:00:01.011Z,95787.47
2022-10-11T04:01:01.021Z,95783.04
2022-10-11T04:02:01.056Z,95785.31
2022-10-11T04:03:00.969Z,95781.05
2022-10-11T04:04:00.970Z,95785.83
2022-10-11T04:05:00.963Z,95785.05
2022-10-11T04:06:00.980Z,95781.39
2022-10-11T04:07:00.951Z,95781.08
2022-10-11T04:08:00.930Z,95780.11
2022-10-11T04:09:00.921Z,95781.25
2022-10-11T04:10:00.911Z,95776.80
2022-10-11T04:11:00.901Z,95780.03
2022-10-11T04:12:00.906Z,95776.84
2022-10-11T04:13:00.906Z,95779.41
2022-10-11T04:14:00.895Z,95780.09
2022-10-11T04:15:00.883Z,95774.12
2022-10-11T04:16:01.033Z,95775.48
2022-10-11T04:17:00.870Z,95777.08
2022-10-11T04:18:00.844Z,95776.05
2022-10-11T04:19:00.864Z,95775.48
2022-10-11T04:20:00.845Z,95774.06
2022-10-11T04:21:00.828Z,95776.79
2022-10-11T04:22:00.817Z,95779.34
2022-10-11T04:23:00.804Z,95775.03
2022-10-11T04:24:00.796Z,95776.45
2022-10-11T04:25:00.810Z,95775.42
2022-10-11T04:26:00.851Z,95775.31
2022-10-11T04:27:00.767Z,95777.19
2022-10-11T04:28:00.782Z,95777.41
2022-10-11T04:29:00.767Z,95780.34
2022-10-11T04:30:00.747Z,95779.48
2022-10-11T04:31:00.761Z,95785.16
2022-10-11T04:32:00.732Z,95779.48
2022-10-11T04:33:00.718Z,95774.71
2022-10-11T04:34:00.709Z,95777.16
2022-10-11T04:35:00.699Z,95780.67
2022-10-11T04:36:00.725Z,95776.70
2022-10-11T04:37:00.718Z,95773.86
2022-10-11T04:38:00.693Z,95784.93
2022-10-11T04:39:00.670Z,95781.50
2022-10-11T04:40:00.661Z,95783.72
2022-10-11T04:41:00.653Z,95783.03
2022-10-11T04:42:00.657Z,95783.48
2022-10-11T04:43:00.665Z,95782.97
2022-10-11T04:44:00.646Z,95780.30
2022-10-11T04:45:00.626Z,95782.34
2022-10-11T04:46:00.628Z,95782.52
2022-10-11T04:47:00.607Z,95780.64
2022-10-11T04:48:00.610Z,95784.27
2022-10-11T04:49:00.593Z,95779.70
2022-10-11T04:50:00.588Z,95781.41
2022-10-11T04:51:00.574Z,95779.76
2022-10-11T04:52:00.579Z,95784.88
2022-10-11T04:53:00.560Z,95781.91
2022-10-11T04:54:00.566Z,95780.38
2022-10-11T04:55:00.556Z,95784.47
2022-10-11T04:56:00.540Z,95782.36
2022-10-11T04:57:00.529Z,95789.86
2022-10-11T04:58:00.511Z,95791.08
2022-10-11T04:59:00.512Z,95791.64
2022-10-11T05:00:00.497Z,95794.42
2022-10-11T05:01:00.508Z,95793.52
2022-10-11T05:02:00.550Z,95796.33
2022-10-11T05:03:00.468Z,95794.68
2022-10-11T05:04:00.469Z,95793.88
2022-10-11T05:05:00.462Z,95796.09
2022-10-11T05:06:05.183Z,95796.23
2022-10-11T05:07:00.455Z,95789.07
2022-10-11T05:08:00.445Z,95794.75
2022-10-11T05:09:00.424Z,95795.38
2022-10-11T05:10:00.414Z,95798.92
2022-10-11T05:11:00.401Z,95799.77
2022-10-11T05:12:00.391Z,95799.31
2022-10-11T05:13:00.402Z,95793.97
2022-10-11T05:14:00.385Z,95793.75
2022-10-11T05:15:00.371Z,95794.05
2022-10-11T05:16:00.353Z,95793.55
2022-10-11T05:17:00.353Z,95791.55
2022-10-11T05:18:00.357Z,95792.91
2022-10-11T05:19:00.364Z,95795.75
2022-10-11T05:20:00.324Z,95795.64
2022-10-11T05:21:00.329Z,95796.77
2022-10-11T05:22:00.436Z,95796.66
2022-10-11T05:23:00.317Z,95795.83
2022-10-11T05:24:00.299Z,95793.79
2022-10-11T05:25:00.310Z,95796.91
2022-10-11T05:26:00.267Z,95797.30
2022-10-11T05:27:03.357Z,95795.77
2022-10-11T05:28:00.260Z,95796.73
2022-10-11T05:29:00.330Z,95797.42
2022-10-11T05:30:00.253Z,95798.72
2022-10-11T05:31:00.261Z,95799.84
2022-10-11T05:32:00.217Z,95803.66
2022-10-11T05:33:00.209Z,95803.83
2022-10-11T05:34:00.202Z,95800.61
2022-10-11T05:35:00.202Z,95800.05
2022-10-11T05:36:00.180Z,95805.04
2022-10-11T05:37:00.306Z,95807.14
2022-10-11T05:38:00.176Z,95805.38
2022-10-11T05:39:00.161Z,95798.34
2022-10-11T05:40:00.152Z,95806.06
2022-10-11T05:41:00.141Z,95803.68
2022-10-11T05:42:00.131Z,95796.30
2022-10-11T05:43:00.146Z,95801.30
2022-10-11T05:44:00.131Z,95804.75
2022-10-11T05:45:00.128Z,95802.14
2022-10-11T05:46:00.092Z,95803.51
2022-10-11T05:47:00.106Z,95802.60
2022-10-11T05:48:00.091Z,95803.91
2022-10-11T05:49:00.166Z,95803.31
2022-10-11T05:50:00.129Z,95803.99
2022-10-11T05:51:00.076Z,95798.97
2022-10-11T05:52:00.060Z,95801.72
2022-10-11T05:53:00.073Z,95802.47
2022-10-11T05:54:00.040Z,95805.94
2022-10-11T05:55:00.045Z,95812.00
2022-10-11T05:56:00.006Z,95812.06
2022-10-11T05:57:00.006Z,95812.23
2022-10-11T05:57:59.997Z,95810.93
2022-10-11T05:59:02.368Z,95811.78
2022-10-11T05:59:59.979Z,95814.23
2022-10-11T06:01:00.057Z,95816.30
2022-10-11T06:01:59.972Z,95816.30
2022-10-11T06:02:59.972Z,95823.51
2022-10-11T06:03:59.941Z,95820.72
2022-10-11T06:04:59.945Z,95817.55
2022-10-11T06:05:59.938Z,95825.89
2022-10-11T06:06:59.949Z,95829.53
2022-10-11T06:07:59.925Z,95829.70
2022-10-11T06:08:59.924Z,95831.19
2022-10-11T06:09:59.890Z,95831.92
2022-10-11T06:10:59.893Z,95834.33
2022-10-11T06:11:59.955Z,95836.38
2022-10-11T06:12:59.926Z,95837.23
2022-10-11T06:13:59.875Z,95841.32
2022-10-11T06:14:59.867Z,95845.52
2022-10-11T06:15:59.844Z,95845.38
2022-10-11T06:16:59.840Z,95847.13
2022-10-11T06:17:59.837Z,95850.18
2022-10-11T06:18:59.834Z,95852.13
2022-10-11T06:19:59.803Z,95851.11
2022-10-11T06:20:59.814Z,95850.26
2022-10-11T06:21:59.809Z,95849.86
2022-10-11T06:22:59.806Z,95851.84
2022-10-11T06:24:01.561Z,95855.62
2022-10-11T06:24:59.807Z,95853.36
2022-10-11T06:25:59.757Z,95853.88
2022-10-11T06:26:59.770Z,95852.01
2022-10-11T06:27:59.745Z,95855.27
2022-10-11T06:28:59.790Z,95853.46
2022-10-11T06:29:59.727Z,95857.84
2022-10-11T06:30:59.730Z,95859.31
2022-10-11T06:31:59.708Z,95858.95
2022-10-11T06:33:04.446Z,95861.34
2022-10-11T06:33:59.703Z,95861.80
2022-10-11T06:34:59.688Z,95859.53
2022-10-11T06:35:59.678Z,95856.95
2022-10-11T06:36:59.704Z,95862.80
2022-10-11T06:37:59.660Z,95863.55
2022-10-11T06:38:59.661Z,95866.36
2022-10-11T06:39:59.640Z,95856.53
2022-10-11T06:40:59.654Z,95863.92
2022-10-11T06:41:59.629Z,95865.06
2022-10-11T06:42:59.643Z,95869.35
2022-10-11T06:43:59.626Z,95867.71
2022-10-11T06:44:59.617Z,95868.80
2022-10-11T06:45:59.593Z,95867.55
2022-10-11T06:46:59.733Z,95876.06
2022-10-11T06:47:59.587Z,95868.43
2022-10-11T06:48:59.608Z,95869.22
2022-10-11T06:49:59.567Z,95874.58
2022-10-11T06:51:00.683Z,95874.32
2022-10-11T06:51:59.566Z,95872.67
2022-10-11T06:52:59.558Z,95875.35
2022-10-11T06:53:59.536Z,95875.01
2022-10-11T06:54:59.550Z,95877.23
2022-10-11T06:55:59.507Z,95880.52
2022-10-11T06:56:59.536Z,95876.38
2022-10-11T06:57:59.500Z,95884.13
2022-10-11T06:58:59.504Z,95879.73
2022-10-11T06:59:59.488Z,95877.77
2022-10-11T07:00:59.555Z,95880.05
2022-10-11T07:01:59.458Z,95882.66
2022-10-11T07:02:59.448Z,95883.06
2022-10-11T07:03:59.453Z,95884.42
2022-10-11T07:04:59.453Z,95882.58
2022-10-11T07:06:02.393Z,95883.72
2022-10-11T07:06:59.439Z,95884.34
2022-10-11T07:07:59.413Z,95888.12
2022-10-11T07:08:59.411Z,95890.46
2022-10-11T07:09:59.391Z,95888.20
2022-10-11T07:10:59.391Z,95884.78
2022-10-11T07:11:59.385Z,95886.52
2022-10-11T07:12:59.382Z,95890.61
2022-10-11T07:13:59.367Z,95888.73
2022-10-11T07:14:59.366Z,95886.12
2022-10-11T07:15:59.332Z,95889.39
2022-10-11T07:16:59.354Z,95896.67
2022-10-11T07:17:59.324Z,95886.45
2022-10-11T07:19:00.671Z,95887.84
2022-10-11T07:19:59.304Z,95889.38
2022-10-11T07:20:59.317Z,95890.80
2022-10-11T07:21:59.284Z,95887.98
2022-10-11T07:22:59.284Z,95890.58
2022-10-11T07:23:59.292Z,95893.59
2022-10-11T07:24:59.274Z,95892.62
2022-10-11T07:25:59.259Z,95890.78
2022-10-11T07:26:59.246Z,95887.83
2022-10-11T07:27:59.247Z,95898.23
2022-10-11T07:28:59.303Z,95890.12
2022-10-11T07:29:59.216Z,95892.86
2022-10-11T07:30:59.229Z,95899.23
2022-10-11T07:31:59.199Z,95889.03
2022-10-11T07:32:59.201Z,95887.38
2022-10-11T07:33:59.193Z,95895.45
2022-10-11T07:34:59.210Z,95891.76
2022-10-11T07:35:59.159Z,95891.78
2022-10-11T07:36:59.191Z,95896.79
2022-10-11T07:37:59.171Z,95893.58
2022-10-11T07:38:59.153Z,95892.02
2022-10-11T07:39:59.135Z,95888.66
2022-10-11T07:40:59.134Z,95890.25
2022-10-11T07:41:59.124Z,95896.02
2022-10-11T07:42:59.111Z,95895.34
2022-10-11T07:43:59.092Z,95895.86
2022-10-11T07:44:59.082Z,95894.44
2022-10-11T07:45:59.090Z,95902.08
2022-10-11T07:46:59.096Z,95899.02
2022-10-11T07:47:59.078Z,95894.52
2022-10-11T07:48:59.054Z,95896.56
2022-10-11T07:49:59.034Z,95895.62
2022-10-11T07:50:59.046Z,95895.11
2022-10-11T07:51:59.014Z,95893.23
2022-10-11T07:52:59.028Z,95894.48
2022-10-11T07:54:01.349Z,95898.02
2022-10-11T07:54:59.036Z,95901.60
2022-10-11T07:55:58.996Z,95905.06
2022-10-11T07:56:58.977Z,95902.37
2022-10-11T07:57:58.965Z,95907.88
2022-10-11T07:58:58.971Z,95906.52
2022-10-11T07:59:58.948Z,95901.86
2022-10-11T08:00:58.985Z,95903.62
2022-10-11T08:01:59.053Z,95905.44
2022-10-11T08:02:58.931Z,95900.46
2022-10-11T08:03:58.908Z,95904.21
2022-10-11T08:04:58.921Z,95908.20
2022-10-11T08:05:58.889Z,95906.77
2022-10-11T08:06:58.903Z,95911.20
2022-10-11T08:07:58.871Z,95906.60
2022-10-11T08:08:58.871Z,95907.77
2022-10-11T08:09:58.851Z,95906.69
2022-10-11T08:10:58.863Z,95904.06
2022-10-11T08:11:58.846Z,95910.67
2022-10-11T08:13:04.130Z,95910.86
2022-10-11T08:13:58.822Z,95911.60
2022-10-11T08:14:58.826Z,95909.72
2022-10-11T08:15:58.815Z,95911.31
2022-10-11T08:16:58.803Z,95911.77
2022-10-11T08:17:58.797Z,95910.18
2022-10-11T08:18:58.806Z,95910.66
2022-10-11T08:19:58.762Z,95916.01
2022-10-11T08:20:58.769Z,95915.21
2022-10-11T08:21:58.744Z,95918.17
2022-10-11T08:22:58.767Z,95915.84
2022-10-11T08:23:58.726Z,95918.17
2022-10-11T08:24:58.740Z,95915.27
2022-10-11T08:25:58.719Z,95916.72
2022-10-11T08:26:58.706Z,95914.72
2022-10-11T08:27:58.704Z,95916.77
2022-10-11T08:28:58.708Z,95911.36
2022-10-11T08:29:58.682Z,95912.39
2022-10-11T08:30:58.682Z,95912.28
2022-10-11T08:31:58.662Z,95911.20
2022-10-11T08:32:58.661Z,95917.23
2022-10-11T08:33:58.642Z,95916.38
2022-10-11T08:34:58.644Z,95911.59
2022-10-11T08:35:58.629Z,95912.87
2022-10-11T08:36:58.635Z,95912.07
2022-10-11T08:37:58.590Z,95915.38
2022-10-11T08:38:58.604Z,95912.07
2022-10-11T08:39:58.594Z,95913.41
2022-10-11T08:40:58.592Z,95914.83
2022-10-11T08:41:58.566Z,95913.97
2022-10-11T08:42:58.586Z,95910.98
2022-10-11T08:43:58.556Z,95912.45
2022-10-11T08:45:10.427Z,95909.44
2022-10-11T08:45:58.536Z,95913.16
2022-10-11T08:47:00.542Z,95911.84
2022-10-11T08:47:58.503Z,95910.54
2022-10-11T08:48:58.513Z,95913.69
2022-10-11T08:49:58.485Z,95909.98
2022-10-11T08:50:58.487Z,95910.22
2022-10-11T08:51:58.478Z,95903.80
2022-10-11T08:52:58.478Z,95911.09
2022-10-11T08:53:59.817Z,95908.58
2022-10-11T08:54:58.465Z,95906.19
2022-10-11T08:55:58.425Z,95908.64
2022-10-11T08:56:58.427Z,95905.08
2022-10-11T08:57:58.421Z,95904.73
2022-10-11T08:58:58.418Z,95906.27
2022-10-11T08:59:58.401Z,95912.93
2022-10-11T09:00:58.398Z,95910.88
2022-10-11T09:01:58.406Z,95909.85
2022-10-11T09:03:13.182Z,95909.52
2022-10-11T09:03:58.359Z,95911.10
2022-10-11T09:04:58.348Z,95909.62
2022-10-11T09:05:58.338Z,95907.97
2022-10-11T09:07:01.341Z,95910.59
2022-10-11T09:07:58.333Z,95910.10
2022-10-11T09:08:58.339Z,95909.97
2022-10-11T09:09:58.315Z,95912.98
2022-10-11T09:10:58.294Z,95906.52
2022-10-11T09:11:58.288Z,95911.50
2022-10-11T09:12:58.315Z,95910.47
2022-10-11T09:13:58.262Z,95909.56
2022-10-11T09:14:58.264Z,95914.97
2022-10-11T09:15:58.245Z,95910.12
2022-10-11T09:16:58.256Z,95907.08
2022-10-11T09:17:58.225Z,95913.20
2022-10-11T09:18:58.233Z,95911.04
2022-10-11T09:19:58.218Z,95909.27
2022-10-11T09:20:58.204Z,95907.62
2022-10-11T09:21:58.184Z,95905.77
2022-10-11T09:22:58.197Z,95906.56
2022-10-11T09:23:58.181Z,95904.45
2022-10-11T09:24:58.209Z,95905.98
2022-10-11T09:25:58.146Z,95904.98
2022-10-11T09:26:58.146Z,95903.27
2022-10-11T09:28:02.851Z,95910.00
2022-10-11T09:29:01.252Z,95910.12
2022-10-11T09:29:58.130Z,95908.76
2022-10-11T09:30:58.140Z,95908.60
2022-10-11T09:31:58.249Z,95905.88
2022-10-11T09:32:58.113Z,95905.70
2022-10-11T09:33:58.078Z,95904.45
2022-10-11T09:34:58.085Z,95905.61
2022-10-11T09:35:58.073Z,95905.42
2022-10-11T09:36:58.059Z,95902.46
2022-10-11T09:37:58.054Z,95907.33
2022-10-11T09:38:58.054Z,95902.25
2022-10-11T09:39:58.021Z,95906.63
2022-10-11T09:40:58.025Z,95903.45
2022-10-11T09:41:58.004Z,95902.14
2022-10-11T09:42:58.012Z,95903.10
2022-10-11T09:43:57.996Z,95901.41
2022-10-11T09:44:57.981Z,95899.66
2022-10-11T09:45:57.976Z,95906.14
2022-10-11T09:46:57.968Z,95901.91
2022-10-11T09:47:57.944Z,95900.91
2022-10-11T09:48:57.953Z,95897.36
2022-10-11T09:49:57.937Z,95901.08
2022-10-11T09:50:57.962Z,95903.81
2022-10-11T09:51:57.917Z,95899.19
2022-10-11T09:52:58.066Z,95899.25
2022-10-11T09:53:57.896Z,95903.14
2022-10-11T09:54:57.901Z,95903.47
2022-10-11T09:55:57.890Z,95900.57
2022-10-11T09:56:57.871Z,95904.66
2022-10-11T09:57:57.857Z,95903.02
2022-10-11T09:58:57.838Z,95902.91
2022-10-11T09:59:57.852Z,95898.69
2022-10-11T10:00:57.842Z,95893.03
2022-10-11T10:01:57.882Z,95897.76
2022-10-11T10:02:57.806Z,95895.64
2022-10-11T10:03:57.799Z,95902.35
2022-10-11T10:04:57.803Z,95898.30
2022-10-11T10:05:57.794Z,95894.72
2022-10-11T10:06:57.788Z,95893.96
2022-10-11T10:08:00.587Z,95895.28
2022-10-11T10:08:57.751Z,95892.71
2022-10-11T10:09:57.743Z,95897.50
2022-10-11T10:10:59.595Z,95895.21
2022-10-11T10:11:57.729Z,95896.79
2022-10-11T10:12:57.737Z,95900.27
2022-10-11T10:13:57.716Z,95900.00
2022-10-11T10:14:57.694Z,95898.33
2022-10-11T10:15:57.693Z,95898.51
2022-10-11T10:16:57.687Z,95901.98
2022-10-11T10:17:57.678Z,95898.38
2022-10-11T10:18:57.730Z,95892.61
2022-10-11T10:19:57.656Z,95896.20
2022-10-11T10:20:57.652Z,95901.22
2022-10-11T10:21:57.648Z,95894.20
2022-10-11T10:22:57.661Z,95891.94
2022-10-11T10:23:57.638Z,95890.48
2022-10-11T10:24:57.617Z,95898.72
2022-10-11T10:25:57.611Z,95892.49
2022-10-11T10:26:57.602Z,95893.74
2022-10-11T10:27:57.591Z,95890.48
2022-10-11T10:28:57.604Z,95892.66
2022-10-11T10:29:57.573Z,95891.52
2022-10-11T10:30:57.560Z,95891.47
2022-10-11T10:32:14.676Z,95894.27
2022-10-11T10:32:57.530Z,95889.38
2022-10-11T10:33:57.520Z,95885.94
2022-10-11T10:34:57.526Z,95885.14
2022-10-11T10:35:57.521Z,95888.91
2022-10-11T10:36:57.502Z,95887.12
2022-10-11T10:37:57.519Z,95886.87
2022-10-11T10:38:57.488Z,95891.25
2022-10-11T10:39:57.476Z,95891.71
2022-10-11T10:40:57.453Z,95887.66
2022-10-11T10:41:57.466Z,95889.88
2022-10-11T10:42:57.458Z,95890.78
2022-10-11T10:43:57.448Z,95890.78
2022-10-11T10:44:57.415Z,95892.03
2022-10-11T10:45:57.427Z,95889.66
2022-10-11T10:46:57.395Z,95891.24
2022-10-11T10:47:57.395Z,95891.98
2022-10-11T10:49:57.391Z,95893.97
2022-10-11T10:50:57.369Z,95896.38
2022-10-11T10:51:57.370Z,95889.30
2022-10-11T10:52:57.347Z,95890.02
2022-10-11T10:53:57.338Z,95890.95
2022-10-11T10:54:57.338Z,95893.38
2022-10-11T10:55:57.340Z,95890.07
